sensor_id;sensor_type;location;lat;lon;timestamp;P1;durP1;ratioP1;P2;durP2;ratioP2
4424;SDS011;2225;53.568;13.266;2023-06-19T00:01:08;17.50;;;11.40;;
4424;SDS011;2225;53.568;13.266;2023-06-19T00:03:35;19.80;;;13.00;;
4424;SDS011;2225;53.568;13.266;2023-06-19T00:06:02;20.13;;;11.30;;
4424;SDS011;2225;53.568;13.266;2023-06-19T00:08:31;21.20;;;11.73;;
4424;SDS011;2225;53.568;13.266;2023-06-19T00:10:58;21.27;;;12.90;;
4424;SDS011;2225;53.568;13.266;2023-06-19T00:13:25;19.40;;;12.70;;
4424;SDS011;2225;53.568;13.266;2023-06-19T00:15:52;20.63;;;11.27;;
4424;SDS011;2225;53.568;13.266;2023-06-19T00:18:19;22.13;;;12.47;;
4424;SDS011;2225;53.568;13.266;2023-06-19T00:20:46;18.87;;;12.40;;
4424;SDS011;2225;53.568;13.266;2023-06-19T00:23:13;16.53;;;11.13;;
4424;SDS011;2225;53.568;13.266;2023-06-19T00:25:43;20.10;;;12.10;;
4424;SDS011;2225;53.568;13.266;2023-06-19T00:28:10;24.20;;;12.37;;
4424;SDS011;2225;53.568;13.266;2023-06-19T00:30:39;18.80;;;11.30;;
4424;SDS011;2225;53.568;13.266;2023-06-19T00:33:07;20.60;;;12.03;;
4424;SDS011;2225;53.568;13.266;2023-06-19T00:35:34;19.87;;;13.23;;
4424;SDS011;2225;53.568;13.266;2023-06-19T00:38:01;19.50;;;11.17;;
4424;SDS011;2225;53.568;13.266;2023-06-19T00:40:29;22.40;;;11.60;;
4424;SDS011;2225;53.568;13.266;2023-06-19T00:42:58;20.07;;;11.97;;
4424;SDS011;2225;53.568;13.266;2023-06-19T00:45:26;44.77;;;11.63;;
4424;SDS011;2225;53.568;13.266;2023-06-19T00:47:55;18.83;;;10.77;;
4424;SDS011;2225;53.568;13.266;2023-06-19T00:50:24;26.13;;;11.90;;
4424;SDS011;2225;53.568;13.266;2023-06-19T00:52:54;18.37;;;10.67;;
4424;SDS011;2225;53.568;13.266;2023-06-19T00:55:21;19.97;;;10.30;;
4424;SDS011;2225;53.568;13.266;2023-06-19T00:57:49;16.80;;;11.13;;
4424;SDS011;2225;53.568;13.266;2023-06-19T01:00:16;19.87;;;12.40;;
4424;SDS011;2225;53.568;13.266;2023-06-19T01:02:44;18.80;;;12.20;;
4424;SDS011;2225;53.568;13.266;2023-06-19T01:05:13;19.73;;;10.80;;
4424;SDS011;2225;53.568;13.266;2023-06-19T01:10:32;19.37;;;12.53;;
4424;SDS011;2225;53.568;13.266;2023-06-19T01:13:06;16.73;;;10.60;;
4424;SDS011;2225;53.568;13.266;2023-06-19T01:15:39;16.33;;;10.23;;
4424;SDS011;2225;53.568;13.266;2023-06-19T01:18:08;19.83;;;11.73;;
4424;SDS011;2225;53.568;13.266;2023-06-19T01:20:37;17.87;;;11.60;;
4424;SDS011;2225;53.568;13.266;2023-06-19T01:23:07;20.77;;;12.50;;
4424;SDS011;2225;53.568;13.266;2023-06-19T01:25:35;17.50;;;11.70;;
4424;SDS011;2225;53.568;13.266;2023-06-19T01:28:04;22.20;;;11.53;;
4424;SDS011;2225;53.568;13.266;2023-06-19T01:30:37;17.50;;;11.73;;
4424;SDS011;2225;53.568;13.266;2023-06-19T01:35:52;22.00;;;11.77;;
4424;SDS011;2225;53.568;13.266;2023-06-19T01:38:23;17.70;;;11.07;;
4424;SDS011;2225;53.568;13.266;2023-06-19T01:40:53;19.37;;;10.87;;
4424;SDS011;2225;53.568;13.266;2023-06-19T01:43:23;24.40;;;11.87;;
4424;SDS011;2225;53.568;13.266;2023-06-19T01:45:51;17.50;;;11.93;;
4424;SDS011;2225;53.568;13.266;2023-06-19T01:48:18;18.47;;;11.30;;
4424;SDS011;2225;53.568;13.266;2023-06-19T01:50:47;21.47;;;12.33;;
4424;SDS011;2225;53.568;13.266;2023-06-19T01:53:15;18.40;;;11.67;;
4424;SDS011;2225;53.568;13.266;2023-06-19T01:55:45;16.90;;;10.97;;
4424;SDS011;2225;53.568;13.266;2023-06-19T01:58:12;15.90;;;10.50;;
4424;SDS011;2225;53.568;13.266;2023-06-19T02:00:39;17.13;;;11.37;;
4424;SDS011;2225;53.568;13.266;2023-06-19T02:03:06;16.97;;;10.90;;
4424;SDS011;2225;53.568;13.266;2023-06-19T02:05:33;17.57;;;11.10;;
4424;SDS011;2225;53.568;13.266;2023-06-19T02:08:05;19.30;;;11.20;;
4424;SDS011;2225;53.568;13.266;2023-06-19T02:10:35;20.87;;;11.03;;
4424;SDS011;2225;53.568;13.266;2023-06-19T02:13:02;19.63;;;10.93;;
4424;SDS011;2225;53.568;13.266;2023-06-19T02:15:29;17.80;;;11.63;;
4424;SDS011;2225;53.568;13.266;2023-06-19T02:17:56;19.63;;;11.07;;
4424;SDS011;2225;53.568;13.266;2023-06-19T02:20:24;17.57;;;11.23;;
4424;SDS011;2225;53.568;13.266;2023-06-19T02:22:55;18.10;;;10.30;;
4424;SDS011;2225;53.568;13.266;2023-06-19T02:25:22;20.27;;;12.43;;
4424;SDS011;2225;53.568;13.266;2023-06-19T02:27:49;31.37;;;12.10;;
4424;SDS011;2225;53.568;13.266;2023-06-19T02:30:15;18.77;;;12.10;;
4424;SDS011;2225;53.568;13.266;2023-06-19T02:32:42;18.80;;;11.97;;
4424;SDS011;2225;53.568;13.266;2023-06-19T02:35:10;22.33;;;11.70;;
4424;SDS011;2225;53.568;13.266;2023-06-19T02:37:38;19.10;;;11.77;;
4424;SDS011;2225;53.568;13.266;2023-06-19T02:40:06;17.67;;;10.83;;
4424;SDS011;2225;53.568;13.266;2023-06-19T02:42:35;19.97;;;12.80;;
4424;SDS011;2225;53.568;13.266;2023-06-19T02:45:02;21.27;;;13.27;;
4424;SDS011;2225;53.568;13.266;2023-06-19T02:47:30;18.47;;;11.70;;
4424;SDS011;2225;53.568;13.266;2023-06-19T02:49:58;18.40;;;12.10;;
4424;SDS011;2225;53.568;13.266;2023-06-19T02:52:26;21.67;;;11.80;;
4424;SDS011;2225;53.568;13.266;2023-06-19T02:54:54;17.33;;;11.27;;
4424;SDS011;2225;53.568;13.266;2023-06-19T02:57:21;21.27;;;12.07;;
4424;SDS011;2225;53.568;13.266;2023-06-19T02:59:48;18.07;;;12.93;;
4424;SDS011;2225;53.568;13.266;2023-06-19T03:02:15;17.70;;;12.07;;
4424;SDS011;2225;53.568;13.266;2023-06-19T03:04:42;19.33;;;12.10;;
4424;SDS011;2225;53.568;13.266;2023-06-19T03:07:10;19.03;;;11.80;;
4424;SDS011;2225;53.568;13.266;2023-06-19T03:09:40;18.97;;;12.33;;
4424;SDS011;2225;53.568;13.266;2023-06-19T03:12:08;20.40;;;11.83;;
4424;SDS011;2225;53.568;13.266;2023-06-19T03:14:36;19.27;;;13.13;;
4424;SDS011;2225;53.568;13.266;2023-06-19T03:17:03;19.13;;;12.53;;
4424;SDS011;2225;53.568;13.266;2023-06-19T03:19:31;18.93;;;12.90;;
4424;SDS011;2225;53.568;13.266;2023-06-19T03:21:58;19.70;;;11.67;;
4424;SDS011;2225;53.568;13.266;2023-06-19T03:24:25;19.87;;;11.17;;
4424;SDS011;2225;53.568;13.266;2023-06-19T03:26:59;19.53;;;12.70;;
4424;SDS011;2225;53.568;13.266;2023-06-19T03:29:26;20.50;;;12.83;;
4424;SDS011;2225;53.568;13.266;2023-06-19T03:32:02;26.87;;;12.27;;
4424;SDS011;2225;53.568;13.266;2023-06-19T03:34:32;20.23;;;12.67;;
4424;SDS011;2225;53.568;13.266;2023-06-19T03:37:02;20.47;;;12.83;;
4424;SDS011;2225;53.568;13.266;2023-06-19T03:39:30;18.20;;;11.67;;
4424;SDS011;2225;53.568;13.266;2023-06-19T03:42:03;18.17;;;12.10;;
4424;SDS011;2225;53.568;13.266;2023-06-19T03:44:31;19.17;;;12.47;;
4424;SDS011;2225;53.568;13.266;2023-06-19T03:46:58;19.67;;;12.30;;
4424;SDS011;2225;53.568;13.266;2023-06-19T03:49:25;18.90;;;12.30;;
4424;SDS011;2225;53.568;13.266;2023-06-19T03:51:53;24.40;;;14.07;;
4424;SDS011;2225;53.568;13.266;2023-06-19T03:54:23;20.43;;;13.30;;
4424;SDS011;2225;53.568;13.266;2023-06-19T03:56:51;21.70;;;11.43;;
4424;SDS011;2225;53.568;13.266;2023-06-19T03:59:18;18.67;;;12.10;;
4424;SDS011;2225;53.568;13.266;2023-06-19T04:01:45;22.60;;;13.43;;
4424;SDS011;2225;53.568;13.266;2023-06-19T04:04:13;21.93;;;13.10;;
4424;SDS011;2225;53.568;13.266;2023-06-19T04:06:40;18.30;;;12.73;;
4424;SDS011;2225;53.568;13.266;2023-06-19T04:09:07;21.07;;;12.73;;
4424;SDS011;2225;53.568;13.266;2023-06-19T04:11:36;21.50;;;13.80;;
4424;SDS011;2225;53.568;13.266;2023-06-19T04:14:03;28.57;;;12.97;;
4424;SDS011;2225;53.568;13.266;2023-06-19T04:16:29;22.60;;;12.60;;
4424;SDS011;2225;53.568;13.266;2023-06-19T04:18:57;21.50;;;13.20;;
4424;SDS011;2225;53.568;13.266;2023-06-19T04:21:24;22.83;;;13.27;;
4424;SDS011;2225;53.568;13.266;2023-06-19T04:23:52;20.00;;;12.23;;
4424;SDS011;2225;53.568;13.266;2023-06-19T04:26:19;18.93;;;12.03;;
4424;SDS011;2225;53.568;13.266;2023-06-19T04:28:47;21.47;;;12.40;;
4424;SDS011;2225;53.568;13.266;2023-06-19T04:31:14;18.73;;;12.77;;
4424;SDS011;2225;53.568;13.266;2023-06-19T04:33:45;18.53;;;12.10;;
4424;SDS011;2225;53.568;13.266;2023-06-19T04:36:12;23.03;;;13.13;;
4424;SDS011;2225;53.568;13.266;2023-06-19T04:38:40;22.57;;;12.67;;
4424;SDS011;2225;53.568;13.266;2023-06-19T04:41:08;23.93;;;12.60;;
4424;SDS011;2225;53.568;13.266;2023-06-19T04:43:35;18.10;;;11.63;;
4424;SDS011;2225;53.568;13.266;2023-06-19T04:46:02;17.33;;;11.50;;
4424;SDS011;2225;53.568;13.266;2023-06-19T04:48:30;20.43;;;11.93;;
4424;SDS011;2225;53.568;13.266;2023-06-19T04:50:57;20.43;;;12.77;;
4424;SDS011;2225;53.568;13.266;2023-06-19T04:53:27;23.30;;;12.10;;
4424;SDS011;2225;53.568;13.266;2023-06-19T04:55:54;19.23;;;11.57;;
4424;SDS011;2225;53.568;13.266;2023-06-19T04:58:21;20.60;;;12.60;;
4424;SDS011;2225;53.568;13.266;2023-06-19T05:00:48;19.33;;;11.60;;
4424;SDS011;2225;53.568;13.266;2023-06-19T05:03:18;22.83;;;13.10;;
4424;SDS011;2225;53.568;13.266;2023-06-19T05:05:45;18.03;;;12.17;;
4424;SDS011;2225;53.568;13.266;2023-06-19T05:08:13;26.00;;;13.13;;
4424;SDS011;2225;53.568;13.266;2023-06-19T05:10:40;19.53;;;13.00;;
4424;SDS011;2225;53.568;13.266;2023-06-19T05:13:09;16.63;;;12.30;;
4424;SDS011;2225;53.568;13.266;2023-06-19T05:15:36;19.87;;;12.60;;
4424;SDS011;2225;53.568;13.266;2023-06-19T05:18:04;20.23;;;13.90;;
4424;SDS011;2225;53.568;13.266;2023-06-19T05:20:31;20.50;;;13.20;;
4424;SDS011;2225;53.568;13.266;2023-06-19T05:22:58;26.77;;;14.33;;
4424;SDS011;2225;53.568;13.266;2023-06-19T05:25:25;20.03;;;13.03;;
4424;SDS011;2225;53.568;13.266;2023-06-19T05:27:52;27.73;;;13.80;;
4424;SDS011;2225;53.568;13.266;2023-06-19T05:30:18;19.87;;;13.60;;
4424;SDS011;2225;53.568;13.266;2023-06-19T05:32:45;17.40;;;12.43;;
4424;SDS011;2225;53.568;13.266;2023-06-19T05:35:12;23.10;;;12.60;;
4424;SDS011;2225;53.568;13.266;2023-06-19T05:37:42;25.90;;;12.30;;
4424;SDS011;2225;53.568;13.266;2023-06-19T05:40:11;22.40;;;13.97;;
4424;SDS011;2225;53.568;13.266;2023-06-19T05:42:39;26.33;;;13.03;;
4424;SDS011;2225;53.568;13.266;2023-06-19T05:45:07;21.23;;;12.43;;
4424;SDS011;2225;53.568;13.266;2023-06-19T05:47:34;22.43;;;14.30;;
4424;SDS011;2225;53.568;13.266;2023-06-19T05:50:01;23.10;;;14.47;;
4424;SDS011;2225;53.568;13.266;2023-06-19T05:52:29;24.60;;;14.97;;
4424;SDS011;2225;53.568;13.266;2023-06-19T05:54:56;30.00;;;14.53;;
4424;SDS011;2225;53.568;13.266;2023-06-19T05:57:24;20.67;;;13.57;;
4424;SDS011;2225;53.568;13.266;2023-06-19T05:59:51;23.20;;;13.03;;
4424;SDS011;2225;53.568;13.266;2023-06-19T06:02:19;36.53;;;12.83;;
4424;SDS011;2225;53.568;13.266;2023-06-19T06:04:46;27.43;;;13.73;;
4424;SDS011;2225;53.568;13.266;2023-06-19T06:07:14;18.97;;;12.20;;
4424;SDS011;2225;53.568;13.266;2023-06-19T06:09:41;22.37;;;14.17;;
4424;SDS011;2225;53.568;13.266;2023-06-19T06:12:08;31.43;;;12.50;;
4424;SDS011;2225;53.568;13.266;2023-06-19T06:14:35;29.20;;;13.47;;
4424;SDS011;2225;53.568;13.266;2023-06-19T06:17:01;23.70;;;13.70;;
4424;SDS011;2225;53.568;13.266;2023-06-19T06:19:31;28.43;;;14.23;;
4424;SDS011;2225;53.568;13.266;2023-06-19T06:21:58;26.50;;;13.33;;
4424;SDS011;2225;53.568;13.266;2023-06-19T06:24:25;30.10;;;12.70;;
4424;SDS011;2225;53.568;13.266;2023-06-19T06:26:52;23.60;;;12.90;;
4424;SDS011;2225;53.568;13.266;2023-06-19T06:29:19;25.23;;;12.83;;
4424;SDS011;2225;53.568;13.266;2023-06-19T06:31:46;26.70;;;13.43;;
4424;SDS011;2225;53.568;13.266;2023-06-19T06:34:13;19.27;;;12.97;;
4424;SDS011;2225;53.568;13.266;2023-06-19T06:36:40;23.03;;;14.47;;
4424;SDS011;2225;53.568;13.266;2023-06-19T06:39:26;25.07;;;11.73;;
4424;SDS011;2225;53.568;13.266;2023-06-19T06:41:53;17.83;;;11.50;;
4424;SDS011;2225;53.568;13.266;2023-06-19T06:44:21;21.63;;;11.60;;
4424;SDS011;2225;53.568;13.266;2023-06-19T06:46:49;24.67;;;11.53;;
4424;SDS011;2225;53.568;13.266;2023-06-19T06:49:18;20.73;;;13.50;;
4424;SDS011;2225;53.568;13.266;2023-06-19T06:51:45;21.57;;;12.90;;
4424;SDS011;2225;53.568;13.266;2023-06-19T06:54:12;22.03;;;13.53;;
4424;SDS011;2225;53.568;13.266;2023-06-19T06:56:39;24.73;;;14.90;;
4424;SDS011;2225;53.568;13.266;2023-06-19T06:59:05;26.20;;;14.53;;
4424;SDS011;2225;53.568;13.266;2023-06-19T07:01:32;22.50;;;13.80;;
4424;SDS011;2225;53.568;13.266;2023-06-19T07:03:59;23.33;;;14.40;;
4424;SDS011;2225;53.568;13.266;2023-06-19T07:06:26;20.30;;;13.50;;
4424;SDS011;2225;53.568;13.266;2023-06-19T07:08:53;32.23;;;13.70;;
4424;SDS011;2225;53.568;13.266;2023-06-19T07:11:20;21.33;;;14.17;;
4424;SDS011;2225;53.568;13.266;2023-06-19T07:13:47;21.93;;;12.53;;
4424;SDS011;2225;53.568;13.266;2023-06-19T07:16:15;25.97;;;13.07;;
4424;SDS011;2225;53.568;13.266;2023-06-19T07:18:42;21.03;;;13.57;;
4424;SDS011;2225;53.568;13.266;2023-06-19T07:21:11;24.80;;;14.07;;
4424;SDS011;2225;53.568;13.266;2023-06-19T07:23:39;21.43;;;13.20;;
4424;SDS011;2225;53.568;13.266;2023-06-19T07:26:09;19.83;;;13.20;;
4424;SDS011;2225;53.568;13.266;2023-06-19T07:28:36;22.57;;;14.73;;
4424;SDS011;2225;53.568;13.266;2023-06-19T07:31:03;22.77;;;14.87;;
4424;SDS011;2225;53.568;13.266;2023-06-19T07:33:30;16.50;;;12.87;;
4424;SDS011;2225;53.568;13.266;2023-06-19T07:35:57;19.73;;;12.83;;
4424;SDS011;2225;53.568;13.266;2023-06-19T07:38:24;17.17;;;13.10;;
4424;SDS011;2225;53.568;13.266;2023-06-19T07:40:51;37.97;;;12.63;;
4424;SDS011;2225;53.568;13.266;2023-06-19T07:43:18;26.67;;;14.20;;
4424;SDS011;2225;53.568;13.266;2023-06-19T07:45:45;21.50;;;14.20;;
4424;SDS011;2225;53.568;13.266;2023-06-19T07:48:12;20.27;;;12.27;;
4424;SDS011;2225;53.568;13.266;2023-06-19T07:50:38;21.87;;;14.00;;
4424;SDS011;2225;53.568;13.266;2023-06-19T07:53:05;19.37;;;13.73;;
4424;SDS011;2225;53.568;13.266;2023-06-19T07:55:32;26.73;;;13.70;;
4424;SDS011;2225;53.568;13.266;2023-06-19T07:58:01;18.33;;;13.27;;
4424;SDS011;2225;53.568;13.266;2023-06-19T08:00:28;21.27;;;14.13;;
4424;SDS011;2225;53.568;13.266;2023-06-19T08:02:55;20.10;;;14.03;;
4424;SDS011;2225;53.568;13.266;2023-06-19T08:05:22;17.93;;;12.50;;
4424;SDS011;2225;53.568;13.266;2023-06-19T08:07:49;18.87;;;12.47;;
4424;SDS011;2225;53.568;13.266;2023-06-19T08:10:16;21.67;;;12.67;;
4424;SDS011;2225;53.568;13.266;2023-06-19T08:12:43;18.53;;;12.20;;
4424;SDS011;2225;53.568;13.266;2023-06-19T08:15:11;18.50;;;13.80;;
4424;SDS011;2225;53.568;13.266;2023-06-19T08:17:42;22.83;;;12.70;;
4424;SDS011;2225;53.568;13.266;2023-06-19T08:20:09;21.47;;;13.40;;
4424;SDS011;2225;53.568;13.266;2023-06-19T08:22:39;18.83;;;13.60;;
4424;SDS011;2225;53.568;13.266;2023-06-19T08:25:06;17.43;;;13.87;;
4424;SDS011;2225;53.568;13.266;2023-06-19T08:27:33;18.13;;;13.07;;
4424;SDS011;2225;53.568;13.266;2023-06-19T08:30:00;17.00;;;13.60;;
4424;SDS011;2225;53.568;13.266;2023-06-19T08:32:27;21.30;;;14.43;;
4424;SDS011;2225;53.568;13.266;2023-06-19T08:34:54;18.93;;;14.57;;
4424;SDS011;2225;53.568;13.266;2023-06-19T08:37:21;18.47;;;13.47;;
4424;SDS011;2225;53.568;13.266;2023-06-19T08:39:48;18.10;;;13.60;;
4424;SDS011;2225;53.568;13.266;2023-06-19T08:42:15;19.93;;;13.27;;
4424;SDS011;2225;53.568;13.266;2023-06-19T08:44:42;16.10;;;13.23;;
4424;SDS011;2225;53.568;13.266;2023-06-19T08:47:09;20.37;;;12.40;;
4424;SDS011;2225;53.568;13.266;2023-06-19T08:49:36;20.83;;;13.40;;
4424;SDS011;2225;53.568;13.266;2023-06-19T08:52:03;19.60;;;13.87;;
4424;SDS011;2225;53.568;13.266;2023-06-19T08:54:31;18.97;;;14.40;;
4424;SDS011;2225;53.568;13.266;2023-06-19T08:57:01;16.90;;;13.40;;
4424;SDS011;2225;53.568;13.266;2023-06-19T08:59:30;19.83;;;13.10;;
4424;SDS011;2225;53.568;13.266;2023-06-19T09:01:58;18.80;;;14.60;;
4424;SDS011;2225;53.568;13.266;2023-06-19T09:04:29;18.00;;;13.30;;
4424;SDS011;2225;53.568;13.266;2023-06-19T09:06:58;20.57;;;14.67;;
4424;SDS011;2225;53.568;13.266;2023-06-19T09:09:30;17.97;;;12.20;;
4424;SDS011;2225;53.568;13.266;2023-06-19T09:11:59;19.60;;;13.37;;
4424;SDS011;2225;53.568;13.266;2023-06-19T09:14:43;17.70;;;14.17;;
4424;SDS011;2225;53.568;13.266;2023-06-19T09:17:19;17.57;;;12.90;;
4424;SDS011;2225;53.568;13.266;2023-06-19T09:19:53;16.80;;;13.53;;
4424;SDS011;2225;53.568;13.266;2023-06-19T09:22:23;17.30;;;12.57;;
4424;SDS011;2225;53.568;13.266;2023-06-19T09:24:51;20.40;;;13.63;;
4424;SDS011;2225;53.568;13.266;2023-06-19T09:27:19;16.80;;;13.60;;
4424;SDS011;2225;53.568;13.266;2023-06-19T09:29:47;26.10;;;13.90;;
4424;SDS011;2225;53.568;13.266;2023-06-19T09:32:19;20.67;;;14.00;;
4424;SDS011;2225;53.568;13.266;2023-06-19T09:34:53;22.33;;;13.00;;
4424;SDS011;2225;53.568;13.266;2023-06-19T09:37:25;19.83;;;13.20;;
4424;SDS011;2225;53.568;13.266;2023-06-19T09:39:55;15.27;;;12.17;;
4424;SDS011;2225;53.568;13.266;2023-06-19T09:42:27;16.20;;;12.90;;
4424;SDS011;2225;53.568;13.266;2023-06-19T09:45:04;14.80;;;11.43;;
4424;SDS011;2225;53.568;13.266;2023-06-19T09:47:37;18.00;;;12.87;;
4424;SDS011;2225;53.568;13.266;2023-06-19T09:50:06;20.50;;;13.53;;
4424;SDS011;2225;53.568;13.266;2023-06-19T09:52:33;19.10;;;12.17;;
4424;SDS011;2225;53.568;13.266;2023-06-19T09:55:03;21.47;;;12.90;;
4424;SDS011;2225;53.568;13.266;2023-06-19T09:57:32;19.17;;;12.73;;
4424;SDS011;2225;53.568;13.266;2023-06-19T10:00:00;16.63;;;11.43;;
4424;SDS011;2225;53.568;13.266;2023-06-19T10:02:42;14.70;;;11.50;;
4424;SDS011;2225;53.568;13.266;2023-06-19T10:05:11;14.13;;;11.37;;
4424;SDS011;2225;53.568;13.266;2023-06-19T10:07:41;14.27;;;11.50;;
4424;SDS011;2225;53.568;13.266;2023-06-19T10:10:11;16.17;;;12.13;;
4424;SDS011;2225;53.568;13.266;2023-06-19T10:12:57;16.00;;;11.73;;
4424;SDS011;2225;53.568;13.266;2023-06-19T10:15:27;17.60;;;11.03;;
4424;SDS011;2225;53.568;13.266;2023-06-19T10:20:37;13.77;;;10.83;;
4424;SDS011;2225;53.568;13.266;2023-06-19T10:25:54;18.50;;;12.13;;
4424;SDS011;2225;53.568;13.266;2023-06-19T10:28:24;18.03;;;11.70;;
4424;SDS011;2225;53.568;13.266;2023-06-19T10:30:56;15.20;;;12.63;;
4424;SDS011;2225;53.568;13.266;2023-06-19T10:33:35;17.10;;;13.20;;
4424;SDS011;2225;53.568;13.266;2023-06-19T10:36:16;19.83;;;13.67;;
4424;SDS011;2225;53.568;13.266;2023-06-19T10:38:46;16.97;;;12.63;;
4424;SDS011;2225;53.568;13.266;2023-06-19T10:41:16;17.07;;;14.13;;
4424;SDS011;2225;53.568;13.266;2023-06-19T10:43:57;17.00;;;12.73;;
4424;SDS011;2225;53.568;13.266;2023-06-19T10:46:34;17.07;;;13.07;;
4424;SDS011;2225;53.568;13.266;2023-06-19T10:49:03;16.43;;;12.47;;
4424;SDS011;2225;53.568;13.266;2023-06-19T10:51:35;23.23;;;14.03;;
4424;SDS011;2225;53.568;13.266;2023-06-19T10:54:04;21.40;;;14.20;;
4424;SDS011;2225;53.568;13.266;2023-06-19T10:56:31;18.13;;;12.77;;
4424;SDS011;2225;53.568;13.266;2023-06-19T10:59:06;18.83;;;13.70;;
4424;SDS011;2225;53.568;13.266;2023-06-19T11:01:47;18.73;;;13.63;;
4424;SDS011;2225;53.568;13.266;2023-06-19T11:04:17;18.87;;;13.67;;
4424;SDS011;2225;53.568;13.266;2023-06-19T11:06:44;18.30;;;13.17;;
4424;SDS011;2225;53.568;13.266;2023-06-19T11:09:13;17.83;;;13.70;;
4424;SDS011;2225;53.568;13.266;2023-06-19T11:11:45;19.23;;;14.00;;
4424;SDS011;2225;53.568;13.266;2023-06-19T11:14:14;20.30;;;14.53;;
4424;SDS011;2225;53.568;13.266;2023-06-19T11:16:44;18.20;;;15.53;;
4424;SDS011;2225;53.568;13.266;2023-06-19T11:19:15;16.80;;;12.70;;
4424;SDS011;2225;53.568;13.266;2023-06-19T11:21:48;16.30;;;13.60;;
4424;SDS011;2225;53.568;13.266;2023-06-19T11:24:17;19.93;;;12.60;;
4424;SDS011;2225;53.568;13.266;2023-06-19T11:26:46;18.07;;;12.60;;
4424;SDS011;2225;53.568;13.266;2023-06-19T11:31:48;25.27;;;12.53;;
4424;SDS011;2225;53.568;13.266;2023-06-19T11:34:16;15.30;;;12.40;;
4424;SDS011;2225;53.568;13.266;2023-06-19T11:36:48;15.37;;;12.10;;
4424;SDS011;2225;53.568;13.266;2023-06-19T11:39:15;16.80;;;11.43;;
4424;SDS011;2225;53.568;13.266;2023-06-19T11:41:43;14.80;;;11.63;;
4424;SDS011;2225;53.568;13.266;2023-06-19T11:44:11;16.30;;;11.87;;
4424;SDS011;2225;53.568;13.266;2023-06-19T11:46:38;13.30;;;11.30;;
4424;SDS011;2225;53.568;13.266;2023-06-19T11:51:43;13.47;;;10.60;;
4424;SDS011;2225;53.568;13.266;2023-06-19T11:54:10;20.17;;;12.03;;
4424;SDS011;2225;53.568;13.266;2023-06-19T11:56:49;15.10;;;12.70;;
4424;SDS011;2225;53.568;13.266;2023-06-19T11:59:16;16.47;;;11.90;;
4424;SDS011;2225;53.568;13.266;2023-06-19T12:01:43;16.10;;;11.73;;
4424;SDS011;2225;53.568;13.266;2023-06-19T12:04:10;17.53;;;11.97;;
4424;SDS011;2225;53.568;13.266;2023-06-19T12:06:38;17.97;;;12.20;;
4424;SDS011;2225;53.568;13.266;2023-06-19T12:09:05;15.63;;;12.37;;
4424;SDS011;2225;53.568;13.266;2023-06-19T12:11:32;16.53;;;12.33;;
4424;SDS011;2225;53.568;13.266;2023-06-19T12:13:59;15.47;;;11.40;;
4424;SDS011;2225;53.568;13.266;2023-06-19T12:16:26;15.03;;;11.53;;
4424;SDS011;2225;53.568;13.266;2023-06-19T12:18:55;14.60;;;11.27;;
4424;SDS011;2225;53.568;13.266;2023-06-19T12:21:22;15.53;;;11.90;;
4424;SDS011;2225;53.568;13.266;2023-06-19T12:24:04;15.47;;;11.80;;
4424;SDS011;2225;53.568;13.266;2023-06-19T12:26:31;14.90;;;11.67;;
4424;SDS011;2225;53.568;13.266;2023-06-19T12:29:04;16.73;;;10.93;;
4424;SDS011;2225;53.568;13.266;2023-06-19T12:31:33;15.67;;;12.10;;
4424;SDS011;2225;53.568;13.266;2023-06-19T12:34:03;14.50;;;11.00;;
4424;SDS011;2225;53.568;13.266;2023-06-19T12:36:52;17.60;;;12.10;;
4424;SDS011;2225;53.568;13.266;2023-06-19T12:39:20;14.70;;;11.40;;
4424;SDS011;2225;53.568;13.266;2023-06-19T12:41:47;14.83;;;11.70;;
4424;SDS011;2225;53.568;13.266;2023-06-19T12:44:14;14.20;;;11.03;;
4424;SDS011;2225;53.568;13.266;2023-06-19T12:46:41;13.67;;;10.97;;
4424;SDS011;2225;53.568;13.266;2023-06-19T12:49:08;16.30;;;12.03;;
4424;SDS011;2225;53.568;13.266;2023-06-19T12:51:35;15.03;;;11.07;;
4424;SDS011;2225;53.568;13.266;2023-06-19T12:54:02;15.77;;;11.70;;
4424;SDS011;2225;53.568;13.266;2023-06-19T12:56:29;15.00;;;10.97;;
4424;SDS011;2225;53.568;13.266;2023-06-19T12:58:56;17.03;;;11.17;;
4424;SDS011;2225;53.568;13.266;2023-06-19T13:01:23;14.60;;;10.70;;
4424;SDS011;2225;53.568;13.266;2023-06-19T13:03:50;13.73;;;10.40;;
4424;SDS011;2225;53.568;13.266;2023-06-19T13:06:17;16.70;;;10.73;;
4424;SDS011;2225;53.568;13.266;2023-06-19T13:08:45;16.10;;;10.03;;
4424;SDS011;2225;53.568;13.266;2023-06-19T13:11:12;16.80;;;10.53;;
4424;SDS011;2225;53.568;13.266;2023-06-19T13:13:39;13.23;;;10.30;;
4424;SDS011;2225;53.568;13.266;2023-06-19T13:16:06;17.27;;;12.50;;
4424;SDS011;2225;53.568;13.266;2023-06-19T13:18:33;14.33;;;11.13;;
4424;SDS011;2225;53.568;13.266;2023-06-19T13:21:00;15.47;;;12.20;;
4424;SDS011;2225;53.568;13.266;2023-06-19T13:23:27;17.53;;;13.50;;
4424;SDS011;2225;53.568;13.266;2023-06-19T13:25:54;25.63;;;14.20;;
4424;SDS011;2225;53.568;13.266;2023-06-19T13:28:21;18.67;;;13.50;;
4424;SDS011;2225;53.568;13.266;2023-06-19T13:30:49;16.20;;;12.30;;
4424;SDS011;2225;53.568;13.266;2023-06-19T13:33:16;16.50;;;13.13;;
4424;SDS011;2225;53.568;13.266;2023-06-19T13:35:44;15.43;;;12.53;;
4424;SDS011;2225;53.568;13.266;2023-06-19T13:38:11;16.10;;;12.30;;
4424;SDS011;2225;53.568;13.266;2023-06-19T13:40:38;19.00;;;12.93;;
4424;SDS011;2225;53.568;13.266;2023-06-19T13:43:05;14.87;;;11.50;;
4424;SDS011;2225;53.568;13.266;2023-06-19T13:45:32;14.50;;;11.80;;
4424;SDS011;2225;53.568;13.266;2023-06-19T13:48:01;15.70;;;11.17;;
4424;SDS011;2225;53.568;13.266;2023-06-19T13:50:28;14.33;;;11.03;;
4424;SDS011;2225;53.568;13.266;2023-06-19T13:52:55;20.30;;;12.17;;
4424;SDS011;2225;53.568;13.266;2023-06-19T13:55:22;14.77;;;11.03;;
4424;SDS011;2225;53.568;13.266;2023-06-19T13:57:49;13.80;;;10.90;;
4424;SDS011;2225;53.568;13.266;2023-06-19T14:00:16;13.93;;;11.23;;
4424;SDS011;2225;53.568;13.266;2023-06-19T14:02:43;19.87;;;11.23;;
4424;SDS011;2225;53.568;13.266;2023-06-19T14:05:11;14.50;;;11.37;;
4424;SDS011;2225;53.568;13.266;2023-06-19T14:07:40;13.87;;;11.17;;
4424;SDS011;2225;53.568;13.266;2023-06-19T14:10:08;13.70;;;11.00;;
4424;SDS011;2225;53.568;13.266;2023-06-19T14:12:35;13.47;;;10.67;;
4424;SDS011;2225;53.568;13.266;2023-06-19T14:15:02;15.07;;;9.90;;
4424;SDS011;2225;53.568;13.266;2023-06-19T14:17:32;14.40;;;10.03;;
4424;SDS011;2225;53.568;13.266;2023-06-19T14:19:59;15.63;;;11.17;;
4424;SDS011;2225;53.568;13.266;2023-06-19T14:22:26;12.53;;;10.10;;
4424;SDS011;2225;53.568;13.266;2023-06-19T14:24:53;12.60;;;10.80;;
4424;SDS011;2225;53.568;13.266;2023-06-19T14:27:26;14.63;;;11.63;;
4424;SDS011;2225;53.568;13.266;2023-06-19T14:29:53;13.47;;;10.07;;
4424;SDS011;2225;53.568;13.266;2023-06-19T14:32:21;13.17;;;9.83;;
4424;SDS011;2225;53.568;13.266;2023-06-19T14:34:52;12.33;;;9.37;;
4424;SDS011;2225;53.568;13.266;2023-06-19T14:37:19;12.67;;;8.37;;
4424;SDS011;2225;53.568;13.266;2023-06-19T14:39:47;11.40;;;8.40;;
4424;SDS011;2225;53.568;13.266;2023-06-19T14:42:14;11.73;;;8.37;;
4424;SDS011;2225;53.568;13.266;2023-06-19T14:44:41;11.57;;;8.33;;
4424;SDS011;2225;53.568;13.266;2023-06-19T14:47:08;11.83;;;8.80;;
4424;SDS011;2225;53.568;13.266;2023-06-19T14:49:35;10.60;;;8.00;;
4424;SDS011;2225;53.568;13.266;2023-06-19T14:52:02;12.77;;;9.80;;
4424;SDS011;2225;53.568;13.266;2023-06-19T14:54:29;12.37;;;9.07;;
4424;SDS011;2225;53.568;13.266;2023-06-19T14:56:56;16.50;;;9.30;;
4424;SDS011;2225;53.568;13.266;2023-06-19T14:59:23;16.20;;;9.30;;